createdAt,value
2022-10-14T00:02:59.024Z,100086.47
2022-10-14T00:06:04.719Z,100079.16
2022-10-14T00:09:09.009Z,100081.13
2022-10-14T00:12:10.785Z,100074.22
2022-10-14T00:15:12.625Z,100083.09
2022-10-14T00:18:14.477Z,100083.09
2022-10-14T00:21:17.304Z,100078.31
2022-10-14T00:24:19.105Z,100076.63
2022-10-14T00:27:21.261Z,100077.59
2022-10-14T00:30:23.403Z,100075.06
2022-10-14T00:33:26.388Z,100084.78
2022-10-14T00:36:29.320Z,100078.47
2022-10-14T00:39:31.130Z,100076.78
2022-10-14T00:42:34.186Z,100078.47
2022-10-14T00:45:36.008Z,100064.22
2022-10-14T00:48:37.984Z,100071.56
2022-10-14T00:51:42.589Z,100066.22
2022-10-14T00:54:56.821Z,100066.50
2022-10-14T00:57:58.620Z,100067.63
2022-10-14T01:01:00.578Z,100058.75
2022-10-14T01:04:02.343Z,100059.88
2022-10-14T01:07:13.051Z,100053.69
2022-10-14T01:10:20.674Z,100058.59
2022-10-14T01:13:33.901Z,100065.78
2022-10-14T01:17:06.468Z,100057.06
2022-10-14T01:21:03.346Z,100060.16
2022-10-14T01:24:23.059Z,100051.28
2022-10-14T01:27:31.810Z,100057.75
2022-10-14T01:30:48.027Z,100058.72
2022-10-14T01:33:56.605Z,100061.28
2022-10-14T01:37:09.324Z,100057.88
2022-10-14T01:40:26.830Z,100057.31
2022-10-14T01:43:32.391Z,100060.13
2022-10-14T01:46:37.692Z,100061.13
2022-10-14T01:49:45.010Z,100066.59
2022-10-14T01:52:56.165Z,100063.94
2022-10-14T01:55:59.806Z,100066.75
2022-10-14T01:59:03.385Z,100065.91
2022-10-14T02:02:06.676Z,100063.50
2022-10-14T02:05:32.299Z,100064.34
2022-10-14T02:08:57.447Z,100060.97
2022-10-14T02:12:31.965Z,100068.41
2022-10-14T02:15:52.489Z,100059.69
2022-10-14T02:19:09.573Z,100061.53
2022-10-14T02:22:25.337Z,100063.34
2022-10-14T02:25:39.304Z,100056.88
2022-10-14T02:28:43.628Z,100062.22
2022-10-14T02:31:47.977Z,100066.59
2022-10-14T02:34:53.794Z,100063.91
2022-10-14T02:37:57.930Z,100061.38
2022-10-14T02:41:03.368Z,100068.56
2022-10-14T02:44:06.291Z,100063.91
2022-10-14T02:47:07.870Z,100067.84
2022-10-14T02:50:10.051Z,100061.53
2022-10-14T02:53:15.993Z,100068.56
2022-10-14T02:56:20.553Z,100067.56
2022-10-14T02:59:22.397Z,100059.56
2022-10-14T03:02:24.308Z,100063.63
2022-10-14T03:05:26.637Z,100069.00
2022-10-14T03:08:29.552Z,100066.44
2022-10-14T03:11:33.005Z,100065.59
2022-10-14T03:14:39.459Z,100064.06
2022-10-14T03:17:43.643Z,100063.34
2022-10-14T03:20:48.051Z,100061.53
2022-10-14T03:23:58.562Z,100069.53
2022-10-14T03:27:07.224Z,100064.19
2022-10-14T03:30:09.393Z,100073.91
2022-10-14T03:33:20.410Z,100065.88
2022-10-14T03:36:44.878Z,100069.94
2022-10-14T03:39:46.881Z,100066.44
2022-10-14T03:42:49.851Z,100062.91
2022-10-14T03:45:52.117Z,100065.59
2022-10-14T03:48:56.902Z,100070.94
2022-10-14T03:51:59.288Z,100063.91
2022-10-14T03:55:05.056Z,100068.41
2022-10-14T03:58:07.672Z,100072.63
2022-10-14T04:01:10.306Z,100066.28
2022-10-14T04:04:30.695Z,100071.63
2022-10-14T04:07:33.813Z,100072.50
2022-10-14T04:10:36.007Z,100068.13
2022-10-14T04:13:38.131Z,100069.81
2022-10-14T04:16:40.016Z,100068.13
2022-10-14T04:19:46.228Z,100072.63
2022-10-14T04:22:51.459Z,100070.78
2022-10-14T04:25:55.101Z,100079.66
2022-10-14T04:28:58.846Z,100084.03
2022-10-14T04:32:23.664Z,100076.84
2022-10-14T04:35:26.718Z,100074.03
2022-10-14T04:38:32.330Z,100080.94
2022-10-14T04:41:39.385Z,100081.66
2022-10-14T04:44:41.178Z,100087.97
2022-10-14T04:47:48.591Z,100084.03
2022-10-14T04:50:54.436Z,100082.50
2022-10-14T04:54:18.493Z,100085.31
2022-10-14T04:57:30.509Z,100084.59
2022-10-14T05:00:32.537Z,100087.00
2022-10-14T05:03:45.388Z,100090.09
2022-10-14T05:06:47.347Z,100088.69
2022-10-14T05:09:56.229Z,100090.69
2022-10-14T05:13:14.564Z,100089.16
2022-10-14T05:16:28.267Z,100102.25
2022-10-14T05:19:31.069Z,100102.09
2022-10-14T05:22:32.997Z,100103.50
2022-10-14T05:25:34.909Z,100102.94
2022-10-14T05:28:40.670Z,100102.41
2022-10-14T05:31:43.644Z,100108.16
2022-10-14T05:35:03.999Z,100100.56
2022-10-14T05:38:12.350Z,100110.13
2022-10-14T05:41:16.481Z,100108.72
2022-10-14T05:44:18.362Z,100111.00
2022-10-14T05:47:21.476Z,100111.84
2022-10-14T05:50:27.258Z,100117.19
2022-10-14T05:53:29.280Z,100118.59
2022-10-14T05:56:33.443Z,100126.75
2022-10-14T05:59:35.446Z,100121.13
2022-10-14T06:02:37.214Z,100126.03
2022-10-14T06:05:39.104Z,100121.66
2022-10-14T06:08:42.714Z,100123.19
2022-10-14T06:11:44.581Z,100125.84
2022-10-14T06:14:47.737Z,100118.66
2022-10-14T06:17:49.491Z,100117.50
2022-10-14T06:20:53.210Z,100119.72
2022-10-14T06:23:55.103Z,100121.34
2022-10-14T06:26:57.532Z,100118.63
2022-10-14T06:29:59.411Z,100124.47
2022-10-14T06:33:01.224Z,100120.91
2022-10-14T06:36:04.638Z,100119.56
2022-10-14T06:39:06.405Z,100119.34
2022-10-14T06:42:12.770Z,100123.25
2022-10-14T06:45:14.948Z,100122.19
2022-10-14T06:48:16.703Z,100121.81
2022-10-14T06:51:18.489Z,100122.81
2022-10-14T06:54:20.425Z,100131.09
2022-10-14T06:57:22.151Z,100126.50
2022-10-14T07:00:24.238Z,100136.16
2022-10-14T07:03:26.245Z,100134.19
2022-10-14T07:06:28.234Z,100127.34
2022-10-14T07:09:29.970Z,100133.31
2022-10-14T07:12:31.843Z,100128.09
2022-10-14T07:15:36.131Z,100129.94
2022-10-14T07:18:38.508Z,100123.81
2022-10-14T07:21:40.313Z,100132.13
2022-10-14T07:24:42.020Z,100125.09
2022-10-14T07:27:43.958Z,100128.34
2022-10-14T07:30:45.789Z,100130.09
2022-10-14T07:33:47.649Z,100128.31
2022-10-14T07:36:49.398Z,100138.06
2022-10-14T07:39:51.422Z,100139.41
2022-10-14T07:42:53.231Z,100134.19
2022-10-14T07:46:00.846Z,100131.34
2022-10-14T07:49:08.777Z,100128.47
2022-10-14T07:52:10.681Z,100136.56
2022-10-14T07:55:12.611Z,100132.31
2022-10-14T07:58:14.399Z,100136.84
2022-10-14T08:01:18.793Z,100131.78
2022-10-14T08:04:20.750Z,100129.72
2022-10-14T08:07:23.229Z,100124.25
2022-10-14T08:10:25.447Z,100117.06
2022-10-14T08:13:27.396Z,100115.06
2022-10-14T08:16:32.094Z,100117.03
2022-10-14T08:19:33.838Z,100114.88
2022-10-14T08:22:35.587Z,100117.03
2022-10-14T08:25:37.962Z,100115.69
2022-10-14T08:28:39.803Z,100117.88
2022-10-14T08:31:41.692Z,100108.31
2022-10-14T08:34:43.463Z,100102.88
2022-10-14T08:37:45.228Z,100101.41
2022-10-14T08:41:02.553Z,100096.50
2022-10-14T08:44:25.328Z,100093.09
2022-10-14T08:47:41.035Z,100096.91
2022-10-14T08:50:50.983Z,100099.94
2022-10-14T08:53:59.180Z,100102.38
2022-10-14T08:57:02.343Z,100101.38
2022-10-14T09:00:04.805Z,100095.84
2022-10-14T09:03:15.939Z,100100.94
2022-10-14T09:06:25.907Z,100096.50
2022-10-14T09:09:41.481Z,100095.59
2022-10-14T09:12:43.423Z,100101.50
2022-10-14T09:15:50.325Z,100100.84
2022-10-14T09:19:04.405Z,100107.91
2022-10-14T09:22:13.140Z,100102.69
2022-10-14T09:25:18.547Z,100107.47
2022-10-14T09:28:20.869Z,100100.94
2022-10-14T09:31:22.867Z,100107.78
2022-10-14T09:34:45.140Z,100106.16
2022-10-14T09:37:46.919Z,100103.38
2022-10-14T09:40:54.018Z,100106.88
2022-10-14T09:44:18.548Z,100108.16
2022-10-14T09:47:20.841Z,100114.75
2022-10-14T09:50:51.819Z,100110.03
2022-10-14T09:53:57.208Z,100119.31
2022-10-14T09:57:08.757Z,100119.31
2022-10-14T10:00:25.546Z,100109.38
2022-10-14T10:03:32.723Z,100103.63
2022-10-14T10:06:51.713Z,100112.03
2022-10-14T10:09:58.453Z,100107.66
2022-10-14T10:13:01.174Z,100107.31
2022-10-14T10:16:04.979Z,100110.38
2022-10-14T10:19:32.153Z,100112.94
2022-10-14T10:22:37.107Z,100103.03
2022-10-14T10:25:38.859Z,100102.88
2022-10-14T10:28:46.061Z,100103.22
2022-10-14T10:32:15.645Z,100102.69
2022-10-14T10:35:34.024Z,100099.00
2022-10-14T10:38:55.652Z,100098.47
2022-10-14T10:42:09.071Z,100093.91
2022-10-14T10:45:36.427Z,100094.06
2022-10-14T10:48:57.779Z,100097.56
2022-10-14T10:52:23.365Z,100095.03
2022-10-14T10:59:27.704Z,100090.75
2022-10-14T11:02:39.208Z,100092.28
2022-10-14T11:05:44.404Z,100084.34
2022-10-14T11:09:24.202Z,100102.44
2022-10-14T11:12:38.502Z,100094.34
2022-10-14T11:16:09.685Z,100090.88
2022-10-14T11:19:41.693Z,100090.38
2022-10-14T11:23:12.787Z,100090.69
2022-10-14T11:26:41.656Z,100088.28
2022-10-14T11:29:46.195Z,100084.38
2022-10-14T11:32:53.892Z,100088.56
2022-10-14T11:36:04.271Z,100083.16
2022-10-14T11:39:05.993Z,100070.91
2022-10-14T11:42:21.439Z,100077.81
2022-10-14T11:45:40.420Z,100082.44
2022-10-14T11:49:17.414Z,100075.03
2022-10-14T11:52:30.489Z,100072.19
2022-10-14T11:55:55.912Z,100078.44
2022-10-14T11:59:03.883Z,100079.78
2022-10-14T12:02:44.990Z,100069.88
2022-10-14T12:06:10.855Z,100065.31
2022-10-14T12:09:20.070Z,100066.97
2022-10-14T12:12:26.224Z,100064.59
2022-10-14T12:21:50.892Z,100065.44
2022-10-14T12:24:55.198Z,100066.56
2022-10-14T12:27:57.262Z,100060.69
2022-10-14T12:31:28.085Z,100062.03
2022-10-14T12:34:40.765Z,100061.38
2022-10-14T12:37:50.194Z,100060.56
2022-10-14T12:40:52.445Z,100063.78
2022-10-14T12:44:21.157Z,100061.44
2022-10-14T12:47:36.234Z,100066.16
2022-10-14T12:50:39.855Z,100071.91
2022-10-14T12:54:04.978Z,100064.81
2022-10-14T12:57:26.196Z,100074.25
2022-10-14T13:00:37.018Z,100077.25
2022-10-14T13:03:52.902Z,100068.16
2022-10-14T13:07:39.010Z,100074.19
2022-10-14T13:10:45.021Z,100070.31
2022-10-14T13:13:49.486Z,100077.53
2022-10-14T13:16:57.786Z,100070.81
2022-10-14T13:19:59.650Z,100071.13
2022-10-14T13:23:30.075Z,100070.09
2022-10-14T13:26:46.899Z,100071.94
2022-10-14T13:30:13.744Z,100075.13
2022-10-14T13:33:40.851Z,100070.56
2022-10-14T13:36:56.201Z,100063.34
2022-10-14T13:40:05.340Z,100058.28
2022-10-14T13:43:18.439Z,100069.38
2022-10-14T13:46:29.262Z,100064.81
2022-10-14T13:49:37.280Z,100069.00
2022-10-14T13:52:39.745Z,100068.81
2022-10-14T13:55:51.590Z,100069.81
2022-10-14T13:58:56.339Z,100068.44
2022-10-14T14:02:02.845Z,100072.31
2022-10-14T14:05:05.466Z,100074.63
2022-10-14T14:08:42.413Z,100069.56
2022-10-14T14:11:37.400Z,100073.44
2022-10-14T14:14:43.710Z,100071.50
2022-10-14T14:17:45.541Z,100071.56
2022-10-14T14:20:58.020Z,100074.84
2022-10-14T14:24:01.534Z,100076.22
2022-10-14T14:27:03.442Z,100075.25
2022-10-14T14:30:20.575Z,100078.34
2022-10-14T14:33:32.568Z,100081.41
2022-10-14T14:36:50.829Z,100077.97
2022-10-14T14:40:01.089Z,100068.00
2022-10-14T14:43:04.617Z,100068.53
2022-10-14T14:46:07.022Z,100066.91
2022-10-14T14:49:15.745Z,100063.84
2022-10-14T14:52:17.690Z,100072.63
2022-10-14T14:55:54.712Z,100077.31
2022-10-14T14:59:03.095Z,100068.88
2022-10-14T15:02:15.131Z,100077.50
2022-10-14T15:05:20.036Z,100069.97
2022-10-14T15:08:24.445Z,100070.63
2022-10-14T15:11:27.086Z,100081.97
2022-10-14T15:14:32.474Z,100076.06
2022-10-14T15:17:39.525Z,100081.91
2022-10-14T15:20:43.287Z,100078.69
2022-10-14T15:23:48.609Z,100080.81
2022-10-14T15:26:50.827Z,100082.25
2022-10-14T15:30:34.494Z,100082.69
2022-10-14T15:33:36.852Z,100089.44
2022-10-14T15:36:38.720Z,100085.06
2022-10-14T15:39:45.379Z,100092.09
2022-10-14T15:42:49.896Z,100096.00
2022-10-14T15:46:13.334Z,100093.59
2022-10-14T15:49:22.017Z,100100.88
2022-10-14T15:52:26.190Z,100104.38
2022-10-14T15:55:31.207Z,100107.59
2022-10-14T15:58:35.737Z,100105.72
2022-10-14T16:01:40.379Z,100108.31
2022-10-14T16:05:00.650Z,100110.94
2022-10-14T16:08:11.289Z,100117.94
2022-10-14T16:11:25.956Z,100110.44
2022-10-14T16:14:27.810Z,100112.09
2022-10-14T16:17:29.665Z,100117.22
2022-10-14T16:20:31.995Z,100120.28
2022-10-14T16:23:34.479Z,100123.03
2022-10-14T16:26:37.132Z,100127.78
2022-10-14T16:29:39.090Z,100137.16
2022-10-14T16:32:42.550Z,100128.69
2022-10-14T16:35:49.135Z,100134.66
2022-10-14T16:38:51.227Z,100129.97
2022-10-14T16:41:56.334Z,100135.81
2022-10-14T16:44:58.370Z,100130.25
2022-10-14T16:48:00.985Z,100135.00
2022-10-14T16:51:03.844Z,100126.91
2022-10-14T16:54:05.746Z,100134.56
2022-10-14T16:57:08.238Z,100130.59
2022-10-14T17:00:10.781Z,100138.13
2022-10-14T17:03:14.328Z,100143.94
2022-10-14T17:06:23.206Z,100140.81
2022-10-14T17:09:26.564Z,100139.47
2022-10-14T17:12:29.202Z,100145.31
2022-10-14T17:15:31.111Z,100142.16
2022-10-14T17:18:35.042Z,100141.69
2022-10-14T17:21:39.007Z,100147.25
2022-10-14T17:24:41.946Z,100140.47
2022-10-14T17:27:44.323Z,100138.91
2022-10-14T17:30:46.126Z,100148.09
2022-10-14T17:33:48.489Z,100145.69
2022-10-14T17:36:50.384Z,100154.78
2022-10-14T17:39:52.135Z,100156.59
2022-10-14T17:42:53.874Z,100158.75
2022-10-14T17:46:05.305Z,100157.31
2022-10-14T17:49:10.100Z,100148.84
2022-10-14T17:52:11.927Z,100156.22
2022-10-14T17:55:13.755Z,100158.28
2022-10-14T17:58:15.641Z,100163.84
2022-10-14T18:01:19.324Z,100164.31
2022-10-14T18:04:26.986Z,100169.88
2022-10-14T18:07:29.195Z,100161.41
2022-10-14T18:10:31.083Z,100161.88
2022-10-14T18:13:32.919Z,100161.25
2022-10-14T18:16:38.140Z,100157.97
2022-10-14T18:19:46.128Z,100153.84
2022-10-14T18:22:51.728Z,100177.16
2022-10-14T18:25:53.588Z,100170.50
2022-10-14T18:28:58.886Z,100172.44
2022-10-14T18:32:02.632Z,100173.72
2022-10-14T18:35:07.479Z,100167.81
2022-10-14T18:38:12.497Z,100170.56
2022-10-14T18:41:15.053Z,100172.63
2022-10-14T18:44:17.043Z,100176.47
2022-10-14T18:47:18.842Z,100174.03
2022-10-14T18:50:20.574Z,100182.38
2022-10-14T18:53:22.929Z,100177.16
2022-10-14T18:56:27.939Z,100180.91
2022-10-14T18:59:29.908Z,100175.47
2022-10-14T19:02:33.195Z,100189.00
2022-10-14T19:05:36.162Z,100192.84
2022-10-14T19:08:39.104Z,100184.56
2022-10-14T19:11:41.693Z,100188.09
2022-10-14T19:14:44.478Z,100184.81
2022-10-14T19:17:50.931Z,100189.50
2022-10-14T19:20:58.413Z,100186.09
2022-10-14T19:24:01.985Z,100182.94
2022-10-14T19:27:03.771Z,100186.19
2022-10-14T19:30:06.239Z,100181.94
2022-10-14T19:33:08.027Z,100182.28
2022-10-14T19:36:11.926Z,100191.31
2022-10-14T19:39:16.439Z,100194.31
2022-10-14T19:42:18.286Z,100203.69
2022-10-14T19:45:20.081Z,100194.97
2022-10-14T19:48:22.118Z,100201.53
2022-10-14T19:51:24.821Z,100207.94
2022-10-14T19:54:26.586Z,100205.81
2022-10-14T19:57:28.390Z,100202.44
2022-10-14T20:00:30.179Z,100196.38
2022-10-14T20:03:32.373Z,100205.31
2022-10-14T20:06:35.874Z,100200.31
2022-10-14T20:09:37.667Z,100194.59
2022-10-14T20:12:39.429Z,100203.84
2022-10-14T20:15:41.202Z,100200.44
2022-10-14T20:18:43.186Z,100211.19
2022-10-14T20:21:44.992Z,100215.84
2022-10-14T20:24:46.908Z,100215.13
2022-10-14T20:27:50.658Z,100202.91
2022-10-14T20:30:54.058Z,100208.44
2022-10-14T20:33:56.945Z,100212.03
2022-10-14T20:36:58.775Z,100215.75
2022-10-14T20:40:00.616Z,100217.47
2022-10-14T20:43:03.193Z,100216.94
2022-10-14T20:46:15.835Z,100215.34
2022-10-14T20:49:17.654Z,100221.59
2022-10-14T20:52:19.662Z,100213.84
2022-10-14T20:55:21.402Z,100221.94
2022-10-14T20:58:24.113Z,100220.34
2022-10-14T21:01:27.843Z,100215.97
2022-10-14T21:04:29.648Z,100218.84
2022-10-14T21:07:31.412Z,100219.06
2022-10-14T21:10:33.178Z,100222.88
2022-10-14T21:13:35.070Z,100222.88
2022-10-14T21:16:37.212Z,100222.13
2022-10-14T21:19:39.019Z,100226.69
2022-10-14T21:22:40.949Z,100225.84
2022-10-14T21:25:43.110Z,100226.91
2022-10-14T21:28:44.948Z,100219.91
2022-10-14T21:31:47.492Z,100225.31
2022-10-14T21:34:49.356Z,100229.97
2022-10-14T21:37:54.089Z,100230.81
2022-10-14T21:40:59.610Z,100230.94
2022-10-14T21:44:01.379Z,100229.34
2022-10-14T21:47:03.388Z,100234.75
2022-10-14T21:50:05.497Z,100244.50
2022-10-14T21:53:09.411Z,100243.75
2022-10-14T21:56:14.645Z,100236.75
2022-10-14T21:59:17.465Z,100243.88
2022-10-14T22:02:19.382Z,100244.72
2022-10-14T22:05:21.664Z,100250.66
2022-10-14T22:08:24.007Z,100246.84
2022-10-14T22:11:30.040Z,100250.25
2022-10-14T22:14:31.943Z,100245.69
2022-10-14T22:17:33.671Z,100250.69
2022-10-14T22:20:36.041Z,100253.34
2022-10-14T22:23:40.237Z,100248.88
2022-10-14T22:26:42.435Z,100248.97
2022-10-14T22:29:44.179Z,100257.03
2022-10-14T22:32:45.964Z,100250.03
2022-10-14T22:35:47.835Z,100255.34
2022-10-14T22:38:50.882Z,100255.56
2022-10-14T22:41:52.887Z,100257.56
2022-10-14T22:44:54.662Z,100254.25
2022-10-14T22:47:56.475Z,100257.03
2022-10-14T22:51:13.466Z,100253.72
2022-10-14T22:54:15.221Z,100257.63
2022-10-14T22:57:16.962Z,100257.84
2022-10-14T23:00:18.758Z,100255.50
2022-10-14T23:03:20.614Z,100253.06
2022-10-14T23:06:22.600Z,100260.25
2022-10-14T23:09:24.672Z,100261.31
2022-10-14T23:12:26.718Z,100266.91
2022-10-14T23:15:28.584Z,100267.88
2022-10-14T23:18:32.902Z,100265.41
2022-10-14T23:21:37.301Z,100260.31
2022-10-14T23:24:39.114Z,100265.72
2022-10-14T23:27:40.935Z,100266.97
2022-10-14T23:30:42.733Z,100269.72
2022-10-14T23:33:44.973Z,100270.78
2022-10-14T23:36:46.973Z,100271.72
2022-10-14T23:39:48.766Z,100271.81
2022-10-14T23:42:51.036Z,100272.03
2022-10-14T23:49:07.357Z,100270.53
2022-10-14T23:52:16.430Z,100272.41
2022-10-14T23:55:18.310Z,100262.78
2022-10-14T23:58:20.106Z,100260.22
